Aviation Digital Data Service (ADDS)

Output produced by METARs form (0425 UTC 20 October 2014)
found at http://www.aviationweather.gov/adds/metars/
 
KSPI 192346Z 2000/2024 21006KT P6SM BKN120 
     FM200800 22007KT P6SM SCT035 OVC150 
     FM201500 27009KT P6SM SCT150 
     FM201800 30011KT P6SM SCT050